Terminal Aerodrome Forecast
Issued by NWS

Home | Current Version | Previous Version | Text Only | Print | Product List | Glossary On
Versions: 1 2 3 4 5 6 7 8 9 10 11 12 13
059
FTUS44 KEPZ 241720
TAFLRU
TAF
KLRU 241720Z 2418/2518 26006KT P6SM FEW080
     FM242000 27011KT P6SM SCT090 SCT250
     FM250200 32005KT P6SM FEW090 SCT200
     FM251200 08005KT P6SM FEW150=

USA.gov is the U.S. government's official web portal to all federal, state and local government web resources and services.